Time;durP1;ratioP1;P1;durP2;ratioP2;P2;SDS_P1;SDS_P2;PMS_P1;PMS_P2;Temp;Humidity;BMP_temperature;BMP_pressure;BME280_temperature;BME280_humidity;BME280_pressure;Samples;Min_cycle;Max_cycle;Signal;HPM_P1;HPM_P2
2022/05/22 00:01:55;;;;;;;1999.90;999.90;;;9.00;99.90;;;;;;5108939;28;20135;-78
2022/05/22 00:04:21;;;;;;;1999.90;999.90;;;10.50;99.90;;;;;;5110675;28;20504;-78
2022/05/22 00:06:48;;;;;;;1999.90;999.90;;;10.30;99.90;;;;;;5110645;28;20055;-79
2022/05/22 00:09:14;;;;;;;1999.90;999.90;;;10.30;99.90;;;;;;5075579;28;20055;-78
2022/05/22 00:11:40;;;;;;;1999.90;999.90;;;10.30;99.90;;;;;;5110536;28;20044;-78
2022/05/22 00:14:06;;;;;;;1999.90;999.90;;;10.30;99.90;;;;;;5109939;28;20472;-78
2022/05/22 00:16:38;;;;;;;1999.90;999.90;;;10.20;99.90;;;;;;5092514;28;20039;-78
2022/05/22 00:19:09;;;;;;;1999.90;999.90;;;10.20;99.90;;;;;;5111999;28;20399;-79
2022/05/22 00:21:35;;;;;;;1999.90;999.90;;;10.20;99.90;;;;;;5116028;28;20090;-78
2022/05/22 00:24:02;;;;;;;1999.90;999.90;;;11.30;99.90;;;;;;5114773;28;20104;-78
2022/05/22 00:26:27;;;;;;;1999.90;999.90;;;11.50;99.90;;;;;;5114614;28;20043;-77
2022/05/22 00:28:53;;;;;;;1999.90;999.90;;;10.10;99.90;;;;;;5096751;28;20047;-79
2022/05/22 00:31:19;;;;;;;1999.90;999.90;;;10.30;99.90;;;;;;5094030;28;20130;-77
2022/05/22 00:33:44;;;;;;;1999.90;999.90;;;10.10;99.90;;;;;;5113201;28;20049;-79
2022/05/22 00:36:10;;;;;;;1999.90;999.90;;;10.10;99.90;;;;;;5113357;28;20108;-78
2022/05/22 00:38:36;;;;;;;1999.90;999.90;;;10.00;99.90;;;;;;5114689;28;20063;-82
2022/05/22 00:41:03;;;;;;;1999.90;999.90;;;10.00;99.90;;;;;;5114147;28;20051;-78
2022/05/22 00:43:35;;;;;;;1999.90;999.90;;;10.40;99.90;;;;;;5078763;28;20044;-78
2022/05/22 00:46:03;;;;;;;1999.90;999.90;;;10.10;99.90;;;;;;5095928;28;20055;-78
2022/05/22 00:48:30;;;;;;;1999.90;999.90;;;10.00;99.90;;;;;;5112599;28;20051;-78
2022/05/22 00:51:09;;;;;;;1999.90;999.90;;;9.90;99.90;;;;;;5113654;28;20055;-78
2022/05/22 00:53:41;;;;;;;1999.90;999.90;;;9.90;99.90;;;;;;5108969;28;20083;-77
2022/05/22 00:56:09;;;;;;;1999.90;999.90;;;9.90;99.90;;;;;;5111992;28;20503;-78
2022/05/22 00:58:35;;;;;;;1999.90;999.90;;;11.30;99.90;;;;;;5113692;28;20047;-77
2022/05/22 01:01:02;;;;;;;1999.90;999.90;;;11.00;99.90;;;;;;5111962;28;20062;-79
2022/05/22 01:03:31;;;;;;;1999.90;999.90;;;9.90;99.90;;;;;;5112784;28;20055;-79
2022/05/22 01:06:24;;;;;;;1999.90;999.90;;;10.90;99.90;;;;;;5095896;28;20050;-78
2022/05/22 01:08:50;;;;;;;1999.90;999.90;;;10.40;99.90;;;;;;5095743;28;20054;-81
2022/05/22 01:11:30;;;;;;;1999.90;999.90;;;10.20;99.90;;;;;;5093947;28;20043;-78
2022/05/22 01:14:02;;;;;;;1999.90;999.90;;;10.00;99.90;;;;;;5093618;28;20343;-78
2022/05/22 01:16:27;;;;;;;1999.90;999.90;;;9.90;99.90;;;;;;5112729;28;20372;-78
2022/05/22 01:18:56;;;;;;;1999.90;999.90;;;9.90;99.90;;;;;;5095334;28;20477;-78
2022/05/22 01:21:31;;;;;;;1999.90;999.90;;;9.90;99.90;;;;;;5094396;28;20043;-77
2022/05/22 01:23:57;;;;;;;1999.90;999.90;;;9.80;99.90;;;;;;5112822;28;20043;-77
2022/05/22 01:26:25;;;;;;;1999.90;999.90;;;9.80;99.90;;;;;;5113697;28;20046;-77
2022/05/22 01:28:51;;;;;;;;;;;9.90;99.90;;;;;;5114502;28;20393;-77
2022/05/22 01:31:17;;;;;;;1999.90;999.90;;;9.80;99.90;;;;;;5112671;28;19920;-77
2022/05/22 01:33:43;;;;;;;1999.90;999.90;;;10.50;99.90;;;;;;5094866;28;20048;-78
2022/05/22 01:36:10;;;;;;;1999.90;999.90;;;10.40;99.90;;;;;;5113764;28;20047;-77
2022/05/22 01:38:36;;;;;;;1999.90;999.90;;;9.80;99.90;;;;;;5113281;28;20487;-78
2022/05/22 01:41:03;;;;;;;1999.90;999.90;;;9.80;99.90;;;;;;5078297;28;20396;-78
2022/05/22 01:43:29;;;;;;;1999.90;999.90;;;10.60;99.90;;;;;;5095070;28;20051;-78
2022/05/22 01:45:55;;;;;;;1999.90;999.90;;;9.70;99.90;;;;;;5112956;28;20428;-77
2022/05/22 01:48:22;;;;;;;1999.90;999.90;;;10.30;99.90;;;;;;5112456;28;20138;-78
2022/05/22 01:50:48;;;;;;;1999.90;999.90;;;9.70;99.90;;;;;;5094357;28;20071;-78
2022/05/22 01:53:14;;;;;;;1999.90;999.90;;;10.30;99.90;;;;;;5093961;28;20078;-78
2022/05/22 01:55:40;;;;;;;1999.90;999.90;;;9.60;99.90;;;;;;5112398;28;20044;-78
2022/05/22 01:58:07;;;;;;;1999.90;999.90;;;9.60;99.90;;;;;;5112415;28;20472;-77
2022/05/22 02:00:33;;;;;;;1999.90;999.90;;;10.20;99.90;;;;;;5091210;28;20048;-78
2022/05/22 02:03:00;;;;;;;1999.90;999.90;;;9.60;99.90;;;;;;5112634;28;20051;-78
2022/05/22 02:05:26;;;;;;;1999.90;999.90;;;9.90;99.90;;;;;;5111875;28;20052;-78
2022/05/22 02:10:37;;;;;;;1999.90;999.90;;;9.70;99.90;;;;;;5111555;28;20164;-78
2022/05/22 02:13:03;;;;;;;1999.90;999.90;;;9.70;99.90;;;;;;5093418;28;20051;-78
2022/05/22 02:15:29;;;;;;;1999.90;999.90;;;9.90;99.90;;;;;;5110795;28;20048;-82
2022/05/22 02:17:56;;;;;;;1999.90;999.90;;;9.60;99.90;;;;;;5076916;28;20457;-81
2022/05/22 02:20:23;;;;;;;1999.90;999.90;;;10.60;99.90;;;;;;5111834;28;20532;-82
2022/05/22 02:22:51;;;;;;;1999.90;999.90;;;9.60;99.90;;;;;;5112387;28;20063;-78
2022/05/22 02:25:26;;;;;;;1999.90;999.90;;;9.60;99.90;;;;;;5111443;28;20036;-81
2022/05/22 02:27:52;;;;;;;1999.90;999.90;;;9.80;99.90;;;;;;5093214;28;20096;-78
2022/05/22 02:30:22;;;;;;;1999.90;999.90;;;9.50;99.90;;;;;;5092531;28;20149;-78
2022/05/22 02:32:47;;;;;;;1999.90;999.90;;;10.80;99.90;;;;;;5093448;28;20058;-78
2022/05/22 02:35:14;;;;;;;1999.90;999.90;;;10.40;99.90;;;;;;5077663;28;20047;-78
2022/05/22 02:37:44;;;;;;;1999.90;999.90;;;9.70;99.90;;;;;;5111843;28;20073;-77
2022/05/22 02:40:12;;;;;;;1999.90;999.90;;;9.50;99.90;;;;;;5112438;28;20051;-77
2022/05/22 02:42:41;;;;;;;1999.90;999.90;;;9.50;99.90;;;;;;5109925;28;20169;-77
2022/05/22 02:45:08;;;;;;;1999.90;999.90;;;9.60;99.90;;;;;;5111184;28;20269;-77
2022/05/22 02:47:34;;;;;;;1999.90;999.90;;;9.40;99.90;;;;;;5059156;28;20051;-77
2022/05/22 02:50:00;;;;;;;1999.90;999.90;;;9.40;99.90;;;;;;5111873;28;20050;-78
2022/05/22 02:52:26;;;;;;;1999.90;999.90;;;9.40;99.90;;;;;;5110805;28;20043;-77
2022/05/22 02:54:52;;;;;;;1999.90;999.90;;;10.60;99.90;;;;;;5093253;28;20080;-77
2022/05/22 02:57:21;;;;;;;1999.90;999.90;;;9.50;99.90;;;;;;5093075;28;20086;-77
2022/05/22 02:59:50;;;;;;;1999.90;999.90;;;9.40;99.90;;;;;;5111081;28;20590;-78
2022/05/22 03:02:16;;;;;;;1999.90;999.90;;;9.30;99.90;;;;;;5108823;28;20055;-78
2022/05/22 03:04:42;;;;;;;1999.90;999.90;;;9.20;99.90;;;;;;5110815;28;20058;-78
2022/05/22 03:07:10;;;;;;;1999.90;999.90;;;10.20;99.90;;;;;;5111266;28;20039;-78
2022/05/22 03:09:41;;;;;;;1999.90;999.90;;;9.20;99.90;;;;;;5093025;28;20471;-78
2022/05/22 03:12:13;;;;;;;1999.90;999.90;;;9.10;99.90;;;;;;5111062;28;20130;-81
2022/05/22 03:14:43;;;;;;;1999.90;999.90;;;9.10;99.90;;;;;;5092241;28;20189;-79
2022/05/22 03:17:08;;;;;;;1999.90;999.90;;;10.10;99.90;;;;;;5109907;28;20066;-78
2022/05/22 03:19:34;;;;;;;1999.90;999.90;;;9.10;99.90;;;;;;5110662;28;20055;-78
2022/05/22 03:22:00;;;;;;;1999.90;999.90;;;9.10;99.90;;;;;;5092929;28;20279;-78
2022/05/22 03:24:26;;;;;;;1999.90;999.90;;;10.10;99.90;;;;;;5093058;28;20145;-78
2022/05/22 03:26:51;;;;;;;1999.90;999.90;;;9.00;99.90;;;;;;5111327;28;20040;-78
2022/05/22 03:29:17;;;;;;;1999.90;999.90;;;9.00;99.90;;;;;;5111088;28;20059;-77
2022/05/22 03:31:43;;;;;;;1999.90;999.90;;;9.00;99.90;;;;;;5108774;28;20070;-77
2022/05/22 03:34:08;;;;;;;1999.90;999.90;;;8.90;99.90;;;;;;5111353;28;20202;-77
2022/05/22 03:36:38;;;;;;;1999.90;999.90;;;10.20;99.90;;;;;;5076113;28;20054;-78
2022/05/22 03:39:04;;;;;;;1999.90;999.90;;;9.00;99.90;;;;;;5093045;28;20051;-78
2022/05/22 03:41:30;;;;;;;1999.90;999.90;;;9.00;99.90;;;;;;5111323;28;20043;-77
2022/05/22 03:43:55;;;;;;;1999.90;999.90;;;9.20;99.90;;;;;;5092845;28;20043;-77
2022/05/22 03:46:21;;;;;;;1999.90;999.90;;;9.20;99.90;;;;;;5092437;28;20032;-77
2022/05/22 03:48:47;;;;;;;1999.90;999.90;;;9.20;99.90;;;;;;5109546;28;20070;-80
2022/05/22 03:51:13;;;;;;;1999.90;999.90;;;9.20;99.90;;;;;;5110843;28;20048;-77
2022/05/22 03:53:39;;;;;;;1999.90;999.90;;;10.80;99.90;;;;;;5092928;28;20100;-78
2022/05/22 03:56:13;;;;;;;1999.90;999.90;;;10.30;99.90;;;;;;5113974;28;20047;-78
2022/05/22 03:58:38;;;;;;;1999.90;999.90;;;9.40;99.90;;;;;;5114284;28;20056;-77
2022/05/22 04:01:06;;;;;;;1999.90;999.90;;;11.00;99.90;;;;;;5077947;28;20056;-78
2022/05/22 04:03:32;;;;;;;1999.90;999.90;;;9.40;99.90;;;;;;5096225;28;20455;-78
2022/05/22 04:05:58;;;;;;;1999.90;999.90;;;10.90;99.90;;;;;;5114832;28;20214;-77
2022/05/22 04:08:23;;;;;;;1999.90;999.90;;;9.40;99.90;;;;;;5115154;28;20083;-78
2022/05/22 04:10:49;;;;;;;1999.90;999.90;;;9.30;99.90;;;;;;5114716;28;20067;-78
2022/05/22 04:13:14;;;;;;;1999.90;999.90;;;10.30;99.90;;;;;;5097031;28;20154;-78
2022/05/22 04:15:40;;;;;;;1999.90;999.90;;;9.40;99.90;;;;;;5078358;28;20051;-78
2022/05/22 04:18:06;;;;;;;1999.90;999.90;;;9.40;99.90;;;;;;5096484;28;20131;-78
2022/05/22 04:20:31;;;;;;;1999.90;999.90;;;9.40;99.90;;;;;;5113561;28;20096;-78
2022/05/22 04:25:56;;;;;;;1999.90;999.90;;;9.60;99.90;;;;;;5114093;28;20055;-78
2022/05/22 04:28:23;;;;;;;1999.90;999.90;;;10.30;99.90;;;;;;5094991;28;20134;-78
2022/05/22 04:30:49;;;;;;;1999.90;999.90;;;10.30;99.90;;;;;;5113260;28;20040;-81
2022/05/22 04:33:15;;;;;;;1999.90;999.90;;;9.70;99.90;;;;;;5114358;28;20070;-78
2022/05/22 04:35:43;;;;;;;1999.90;999.90;;;9.80;99.90;;;;;;5114306;28;20044;-78
2022/05/22 04:38:09;;;;;;;1999.90;999.90;;;11.60;99.90;;;;;;5113630;28;20112;-78
2022/05/22 04:40:35;;;;;;;1999.90;999.90;;;10.20;99.90;;;;;;5114411;28;20054;-78
2022/05/22 04:43:02;;;;;;;1999.90;999.90;;;10.20;99.90;;;;;;5114622;28;20036;-78
2022/05/22 04:45:27;;;;;;;1999.90;999.90;;;10.80;99.90;;;;;;5113516;28;20040;-77
2022/05/22 04:47:53;;;;;;;1999.90;999.90;;;10.30;99.90;;;;;;5112267;28;20043;-78
2022/05/22 04:50:19;;;;;;;1999.90;999.90;;;10.30;99.90;;;;;;5113126;28;20053;-78
2022/05/22 04:52:45;;;;;;;1999.90;999.90;;;10.30;99.90;;;;;;5095787;28;20135;-78
2022/05/22 04:55:10;;;;;;;1999.90;999.90;;;11.70;99.90;;;;;;5115478;28;20131;-79
2022/05/22 04:57:36;;;;;;;1999.90;999.90;;;10.40;99.90;;;;;;5096277;28;20044;-77
2022/05/22 05:00:09;;;;;;;1999.90;999.90;;;11.00;99.90;;;;;;5112568;28;20138;-79
2022/05/22 05:02:35;;;;;;;1999.90;999.90;;;10.50;99.90;;;;;;5111338;28;20146;-83
2022/05/22 05:05:02;;;;;;;1999.90;999.90;;;10.60;99.90;;;;;;5093375;28;20204;-81
2022/05/22 05:07:28;;;;;;;1999.90;999.90;;;10.50;99.90;;;;;;5112515;28;20067;-78
2022/05/22 05:09:54;;;;;;;1999.90;999.90;;;10.50;99.90;;;;;;5093735;28;20480;-77
2022/05/22 05:12:19;;;;;;;1999.90;999.90;;;11.00;99.90;;;;;;5095084;28;20496;-77
2022/05/22 05:14:46;;;;;;;1999.90;999.90;;;10.70;99.90;;;;;;5111497;28;20043;-78
2022/05/22 05:17:14;;;;;;;1999.90;999.90;;;10.90;99.90;;;;;;5112491;28;20031;-77
2022/05/22 05:19:39;;;;;;;;;;;11.00;99.90;;;;;;5094009;28;20472;-78
2022/05/22 05:22:05;;;;;;;1999.90;999.90;;;11.60;99.90;;;;;;5111235;28;19919;-78
2022/05/22 05:24:31;;;;;;;1999.90;999.90;;;11.10;99.90;;;;;;5093941;28;20051;-78
2022/05/22 05:26:56;;;;;;;1999.90;999.90;;;11.20;99.90;;;;;;5112471;28;20411;-78
2022/05/22 05:29:23;;;;;;;1889.68;828.50;;;11.10;99.90;;;;;;5093568;28;20051;-78
2022/05/22 05:31:48;;;;;;;1929.80;848.90;;;12.30;99.90;;;;;;5092451;28;20085;-78
2022/05/22 05:34:14;;;;;;;1846.63;816.70;;;11.60;99.90;;;;;;5112136;28;20086;-78
2022/05/22 05:36:40;;;;;;;1999.90;999.90;;;11.40;99.90;;;;;;5111608;28;20044;-78
2022/05/22 05:39:07;;;;;;;1883.80;835.42;;;11.40;99.90;;;;;;5111395;28;20094;-82
2022/05/22 05:41:37;;;;;;;1999.90;999.90;;;11.40;99.90;;;;;;5110230;28;20120;-77
2022/05/22 05:44:07;;;;;;;1813.88;814.15;;;11.50;99.90;;;;;;5112050;28;20127;-79
2022/05/22 05:46:37;;;;;;;1999.90;999.90;;;12.80;99.90;;;;;;5076734;28;20051;-78
2022/05/22 05:49:07;;;;;;;1999.90;999.90;;;11.60;99.90;;;;;;5112207;28;20476;-77
2022/05/22 05:51:36;;;;;;;1734.18;788.25;;;11.60;99.90;;;;;;5094893;28;20035;-78
2022/05/22 05:54:01;;;;;;;1999.90;999.90;;;11.60;99.90;;;;;;5077157;28;20490;-78
2022/05/22 05:56:27;;;;;;;1999.90;999.90;;;11.60;99.90;;;;;;5093324;28;20040;-78
2022/05/22 05:58:53;;;;;;;1999.90;999.90;;;11.60;99.90;;;;;;5112091;28;20039;-78
2022/05/22 06:01:20;;;;;;;1999.90;999.90;;;11.70;99.90;;;;;;5052290;28;1664136;-78
2022/05/22 06:03:46;;;;;;;1999.90;999.90;;;11.90;99.90;;;;;;5112182;28;20047;-78
2022/05/22 06:06:13;;;;;;;1999.90;999.90;;;12.40;99.90;;;;;;5110674;28;20054;-78
2022/05/22 06:08:42;;;;;;;1887.22;488.05;;;12.00;99.90;;;;;;5093738;28;20104;-79
2022/05/22 06:11:08;;;;;;;1999.90;838.28;;;12.00;99.90;;;;;;5093814;28;20055;-78
2022/05/22 06:13:35;;;;;;;1977.88;832.03;;;12.10;99.90;;;;;;5112341;28;20070;-78
2022/05/22 06:16:05;;;;;;;1999.90;999.90;;;12.20;99.90;;;;;;5111079;28;20054;-77
2022/05/22 06:18:31;;;;;;;1999.90;999.90;;;12.30;99.90;;;;;;5111766;28;20133;-78
2022/05/22 06:20:57;;;;;;;1999.90;838.15;;;12.40;99.90;;;;;;5111384;28;20083;-78
2022/05/22 06:23:23;;;;;;;1999.90;999.90;;;12.40;99.90;;;;;;5112673;28;20058;-79
2022/05/22 06:25:49;;;;;;;1782.30;623.88;;;12.40;99.90;;;;;;5111951;28;20039;-78
2022/05/22 06:28:17;;;;;;;1999.90;999.90;;;12.50;99.90;;;;;;5094636;28;20488;-78
2022/05/22 06:30:43;;;;;;;1999.90;999.90;;;12.60;99.90;;;;;;5093088;28;20476;-79
2022/05/22 06:33:10;;;;;;;1999.90;999.90;;;12.70;99.90;;;;;;5077269;28;20058;-77
2022/05/22 06:35:41;;;;;;;1999.90;999.90;;;12.80;99.90;;;;;;5094615;28;20321;-78
2022/05/22 06:39:49;;;;;;;1999.90;999.90;;;12.90;99.90;;;;;;5094020;28;20071;-78
2022/05/22 06:41:04;;;;;;;1999.90;344.05;;;13.00;99.90;;;;;;5094097;28;20097;-78
2022/05/22 06:43:29;;;;;;;1999.90;999.90;;;13.00;99.90;;;;;;5094318;28;20051;-78
2022/05/22 06:45:55;;;;;;;1999.90;999.90;;;13.10;99.90;;;;;;5112077;28;20052;-79
2022/05/22 06:48:21;;;;;;;1999.90;999.90;;;13.20;99.90;;;;;;5112139;28;20044;-79
2022/05/22 06:50:47;;;;;;;1876.18;811.78;;;13.30;99.90;;;;;;5077264;28;20052;-78
2022/05/22 06:53:12;;;;;;;1999.90;531.00;;;13.40;99.90;;;;;;5060736;28;20051;-78
2022/05/22 06:55:40;;;;;;;1999.90;999.90;;;13.40;99.90;;;;;;5111905;28;20047;-77
2022/05/22 06:58:07;;;;;;;1999.90;937.17;;;13.40;99.90;;;;;;5092841;28;20093;-78
2022/05/22 07:00:32;;;;;;;1999.90;863.33;;;13.50;99.90;;;;;;5111205;28;20058;-78
2022/05/22 07:02:58;;;;;;;1999.90;623.88;;;13.80;99.90;;;;;;5091766;28;20122;-78
2022/05/22 07:05:24;;;;;;;1999.90;999.90;;;15.00;99.90;;;;;;5111024;28;20043;-79
2022/05/22 07:07:50;;;;;;;1428.85;998.85;;;16.00;99.90;;;;;;5093252;28;20525;-77
2022/05/22 07:10:16;;;;;;;1178.13;921.33;;;17.30;99.90;;;;;;5111967;28;20050;-78
2022/05/22 07:12:41;;;;;;;1043.90;890.85;;;18.30;99.90;;;;;;5111993;28;20054;-81
2022/05/22 07:15:08;;;;;;;1081.13;930.92;;;19.40;99.90;;;;;;5110492;28;20040;-79
2022/05/22 07:17:34;;;;;;;1136.35;932.40;;;19.90;99.90;;;;;;5111690;28;20103;-80
2022/05/22 07:20:00;;;;;;;944.60;851.55;;;20.50;99.90;;;;;;5111036;28;20090;-79
2022/05/22 07:22:26;;;;;;;655.85;600.50;;;21.40;99.90;;;;;;5112144;28;20118;-79
2022/05/22 07:24:53;;;;;;;470.30;438.77;;;21.70;99.90;;;;;;5111108;28;20079;-78
2022/05/22 07:27:19;;;;;;;574.08;535.30;;;22.90;99.90;;;;;;5093377;28;20086;-79
2022/05/22 07:29:45;;;;;;;748.85;661.65;;;23.20;99.90;;;;;;5093215;28;20141;-80
2022/05/22 07:32:11;;;;;;;280.95;262.52;;;24.20;99.90;;;;;;5093247;28;20130;-79
2022/05/22 07:34:38;;;;;;;400.98;375.10;;;23.80;85.00;;;;;;5093575;28;20044;-79
2022/05/22 07:37:06;;;;;;;388.90;365.45;;;24.60;1.00;;;;;;5111375;28;20089;-78
2022/05/22 07:39:33;;;;;;;439.85;411.92;;;24.40;1.00;;;;;;5092779;28;20056;-79
2022/05/22 07:41:59;;;;;;;458.08;428.60;;;25.40;1.00;;;;;;5109724;28;20059;-79
2022/05/22 07:44:24;;;;;;;300.85;281.50;;;25.80;99.90;;;;;;5110297;28;20062;-79
2022/05/22 07:46:50;;;;;;;521.15;487.05;;;25.90;99.90;;;;;;5092698;28;20044;-79
2022/05/22 07:52:04;;;;;;;216.88;203.45;;;26.40;99.90;;;;;;5092796;28;20058;-77
2022/05/22 07:54:33;;;;;;;174.55;163.45;;;26.70;99.90;;;;;;5093394;28;20035;-79
2022/05/22 07:56:59;;;;;;;109.38;102.50;;;26.90;99.90;;;;;;5111274;28;20051;-79
2022/05/22 07:59:24;;;;;;;263.35;243.75;;;27.70;99.90;;;;;;5093241;28;20054;-80
2022/05/22 08:01:50;;;;;;;119.32;112.07;;;28.20;99.90;;;;;;5110615;28;20385;-79
2022/05/22 08:04:15;;;;;;;299.60;281.73;;;28.60;99.90;;;;;;5109871;28;20100;-79
2022/05/22 08:06:41;;;;;;;175.45;163.88;;;29.10;99.90;;;;;;5111613;28;20123;-79
2022/05/22 08:09:07;;;;;;;223.88;208.30;;;29.50;99.90;;;;;;5093017;28;20396;-79
2022/05/22 08:11:32;;;;;;;126.80;118.70;;;30.20;99.90;;;;;;5076428;28;20400;-79
2022/05/22 08:13:58;;;;;;;289.48;270.10;;;29.80;99.90;;;;;;5110827;28;20039;-79
2022/05/22 08:16:24;;;;;;;119.63;112.15;;;29.40;99.90;;;;;;5110812;28;20051;-80
2022/05/22 08:18:50;;;;;;;126.32;118.68;;;29.90;99.90;;;;;;5111190;28;20060;-79
2022/05/22 08:21:16;;;;;;;139.13;130.43;;;30.40;99.90;;;;;;5110211;28;20048;-79
2022/05/22 08:23:42;;;;;;;105.13;98.32;;;30.30;99.90;;;;;;5092992;28;20296;-79
2022/05/22 08:26:08;;;;;;;280.35;261.50;;;30.50;99.90;;;;;;5092790;28;20039;-80
2022/05/22 08:28:34;;;;;;;144.57;135.80;;;30.70;99.90;;;;;;5093487;28;20039;-79
2022/05/22 08:30:59;;;;;;;167.63;156.98;;;30.80;99.90;;;;;;5108868;28;20094;-81
2022/05/22 08:33:25;;;;;;;298.60;278.17;;;30.90;99.90;;;;;;5092913;28;20039;-79
2022/05/22 08:35:52;;;;;;;156.05;147.13;;;30.40;99.90;;;;;;5092287;28;20048;-81
2022/05/22 08:38:17;;;;;;;268.70;250.20;;;30.60;99.90;;;;;;5111147;28;20051;-79
2022/05/22 08:41:08;;;;;;;369.13;342.58;;;30.50;99.90;;;;;;5112159;28;20289;-80
2022/05/22 08:43:56;;;;;;;461.48;427.70;;;30.00;99.90;;;;;;5115216;28;20043;-79
2022/05/22 08:46:46;;;;;;;531.17;491.45;;;30.00;99.90;;;;;;5096749;28;20048;-79
2022/05/22 08:49:34;;;;;;;434.70;404.58;;;29.40;99.90;;;;;;5114815;28;20107;-79
2022/05/22 08:52:32;;;;;;;424.38;393.58;;;30.10;99.90;;;;;;5114196;28;20055;-79
2022/05/22 08:55:05;;;;;;;540.20;499.33;;;30.90;99.90;;;;;;5095749;28;20048;-80
2022/05/22 09:00:31;;;;;;;562.58;518.85;;;30.40;99.90;;;;;;5114069;28;20133;-79
2022/05/22 09:03:07;;;;;;;607.28;562.22;;;30.00;99.90;;;;;;5113111;28;20493;-79
2022/05/22 09:05:34;;;;;;;630.50;583.15;;;29.80;99.90;;;;;;5096380;28;20112;-79
2022/05/22 09:08:16;;;;;;;682.20;629.72;;;29.80;99.90;;;;;;5096340;28;20051;-79
2022/05/22 09:11:09;;;;;;;491.33;455.52;;;31.00;99.90;;;;;;5096052;28;20047;-79
2022/05/22 09:13:44;;;;;;;121.88;114.00;;;31.60;99.90;;;;;;5096392;28;20044;-80
2022/05/22 09:16:20;;;;;;;512.60;472.38;;;31.70;99.90;;;;;;5095647;28;20047;-79
2022/05/22 09:19:09;;;;;;;574.78;531.47;;;30.80;99.90;;;;;;5096142;28;20048;-83
2022/05/22 09:21:56;;;;;;;697.08;640.15;;;30.30;99.90;;;;;;5114507;28;20054;-79
2022/05/22 09:24:30;;;;;;;585.38;540.92;;;30.00;99.90;;;;;;5114555;28;20130;-79
2022/05/22 09:27:09;;;;;;;583.97;539.22;;;30.10;99.90;;;;;;5114331;28;20492;-80
2022/05/22 09:29:40;;;;;;;730.72;669.63;;;30.30;99.90;;;;;;5114976;28;20528;-79
2022/05/22 09:32:11;;;;;;;778.88;716.13;;;31.00;99.90;;;;;;5075203;28;20043;-80
2022/05/22 09:34:46;;;;;;;695.08;641.28;;;31.50;99.90;;;;;;5113524;28;20165;-80
2022/05/22 09:37:35;;;;;;;607.33;561.33;;;30.90;99.90;;;;;;5113634;28;20066;-80
2022/05/22 09:40:23;;;;;;;674.35;622.10;;;30.20;99.90;;;;;;5113563;28;20043;-80
2022/05/22 09:43:28;;;;;;;659.88;608.63;;;29.10;99.90;;;;;;5113997;28;20107;-80
2022/05/22 09:46:08;;;;;;;706.35;649.17;;;27.10;99.90;;;;;;5095302;28;20101;-79
2022/05/22 09:49:11;;;;;;;786.10;718.22;;;26.10;99.90;;;;;;5113354;28;20035;-79
2022/05/22 09:51:55;;;;;;;663.80;612.78;;;26.10;99.90;;;;;;5094925;28;20043;-79
2022/05/22 09:55:02;;;;;;;789.08;724.28;;;27.30;99.90;;;;;;5113491;28;20052;-79
2022/05/22 09:57:46;;;;;;;618.70;573.67;;;29.20;99.90;;;;;;5113062;28;20043;-78
2022/05/22 10:00:19;;;;;;;663.03;610.70;;;30.80;99.90;;;;;;5090311;28;20052;-79
2022/05/22 10:03:16;;;;;;;721.42;662.22;;;30.70;99.90;;;;;;5091113;28;20416;-80
2022/05/22 10:05:52;;;;;;;680.15;628.03;;;29.80;99.90;;;;;;5092819;28;20040;-80
2022/05/22 10:08:24;;;;;;;747.97;682.10;;;29.00;99.90;;;;;;5092739;28;20093;-79
2022/05/22 10:11:22;;;;;;;764.50;698.10;;;27.70;99.90;;;;;;5091207;28;20473;-79
2022/05/22 10:14:06;;;;;;;804.30;734.92;;;26.50;99.90;;;;;;5064777;28;20092;-79
2022/05/22 10:17:03;;;;;;;798.60;723.75;;;25.80;99.90;;;;;;5091345;28;20044;-79
2022/05/22 10:20:00;;;;;;;704.08;642.42;;;25.50;99.90;;;;;;5091764;28;20052;-79
2022/05/22 10:22:38;;;;;;;778.97;713.70;;;25.60;99.90;;;;;;5074159;28;20052;-80
2022/05/22 10:25:45;;;;;;;735.85;674.40;;;26.30;99.90;;;;;;5092462;28;20071;-79
2022/05/22 10:28:19;;;;;;;876.72;798.92;;;26.30;99.90;;;;;;5081089;28;20044;-79
2022/05/22 10:31:04;;;;;;;679.45;623.53;;;26.80;99.90;;;;;;5091049;28;20113;-79
2022/05/22 10:33:46;;;;;;;929.28;844.25;;;28.10;99.90;;;;;;5092178;28;20123;-79
2022/05/22 10:36:15;;;;;;;620.67;569.22;;;29.30;99.90;;;;;;5091369;28;20157;-79
2022/05/22 10:39:06;;;;;;;684.33;628.38;;;30.60;99.90;;;;;;5092546;28;20135;-79
2022/05/22 10:44:40;;;;;;;659.53;609.42;;;31.70;99.90;;;;;;5092167;28;20457;-80
2022/05/22 10:47:07;;;;;;;675.60;625.15;;;32.30;99.90;;;;;;5091720;28;20056;-79
2022/05/22 10:49:44;;;;;;;612.70;565.43;;;32.50;99.90;;;;;;5074638;28;20051;-79
2022/05/22 10:52:21;;;;;;;486.02;451.58;;;32.50;99.90;;;;;;5091617;28;20297;-80
2022/05/22 10:54:55;;;;;;;496.00;461.98;;;32.50;99.90;;;;;;5090832;28;20052;-79
2022/05/22 10:57:25;;;;;;;408.17;380.75;;;33.00;99.90;;;;;;5090559;28;20449;-80
2022/05/22 10:59:51;;;;;;;340.45;318.10;;;32.60;99.90;;;;;;5091967;28;20051;-80
2022/05/22 11:02:25;;;;;;;214.85;201.15;;;31.60;99.90;;;;;;5093831;28;20048;-79
2022/05/22 11:04:53;;;;;;;309.50;289.88;;;31.50;99.90;;;;;;5076570;28;20104;-79
2022/05/22 11:07:46;;;;;;;221.55;207.85;;;31.90;99.90;;;;;;5111956;28;20043;-79
2022/05/22 11:10:24;;;;;;;321.00;301.45;;;32.60;99.90;;;;;;5111684;28;20062;-79
2022/05/22 11:13:00;;;;;;;351.15;328.65;;;32.00;99.90;;;;;;5093970;28;20069;-79
2022/05/22 11:15:29;;;;;;;494.02;459.98;;;30.80;99.90;;;;;;5111558;28;20051;-80
2022/05/22 11:18:18;;;;;;;321.60;301.48;;;29.90;99.90;;;;;;5111998;28;20056;-79
2022/05/22 11:20:57;;;;;;;343.70;322.50;;;29.90;99.90;;;;;;5093731;28;20492;-79
2022/05/22 11:23:51;;;;;;;327.73;306.65;;;30.60;99.90;;;;;;5111975;28;20075;-80
2022/05/22 11:26:30;;;;;;;490.73;454.33;;;31.70;99.90;;;;;;5093795;28;20131;-79
2022/05/22 11:29:09;;;;;;;328.83;307.45;;;31.30;99.90;;;;;;5112221;28;20048;-80
2022/05/22 11:31:47;;;;;;;522.97;484.25;;;30.20;99.90;;;;;;5093705;28;20051;-80
2022/05/22 11:34:46;;;;;;;507.58;468.65;;;29.30;99.90;;;;;;5111889;28;20495;-81
2022/05/22 11:37:27;;;;;;;333.02;309.98;;;28.70;99.90;;;;;;5111824;28;20047;-80
2022/05/22 11:40:10;;;;;;;524.08;487.83;;;28.00;99.90;;;;;;5112096;28;20044;-79
2022/05/22 11:42:38;;;;;;;353.42;331.58;;;27.70;99.90;;;;;;5094017;28;20089;-80
2022/05/22 11:45:21;;;;;;;472.50;438.98;;;27.70;99.90;;;;;;5094544;28;20035;-79
2022/05/22 11:48:08;;;;;;;653.42;601.15;;;28.60;99.90;;;;;;5094058;28;20428;-79
2022/05/22 11:50:38;;;;;;;731.85;671.55;;;28.60;99.90;;;;;;5111744;28;20164;-80
2022/05/22 11:53:30;;;;;;;651.17;599.60;;;28.00;99.90;;;;;;5093481;28;20055;-79
2022/05/22 11:55:59;;;;;;;570.92;527.53;;;27.10;99.90;;;;;;5092944;28;20051;-79
2022/05/22 11:58:43;;;;;;;673.55;622.83;;;26.80;99.90;;;;;;5111100;28;20102;-79
2022/05/22 12:01:36;;;;;;;631.03;584.08;;;26.60;99.90;;;;;;5076200;28;20128;-79
2022/05/22 12:04:11;;;;;;;728.97;668.10;;;26.40;99.90;;;;;;5092125;28;20450;-79
2022/05/22 12:07:18;;;;;;;824.35;752.40;;;26.30;99.90;;;;;;5111383;28;20467;-80
2022/05/22 12:10:09;;;;;;;749.65;686.45;;;26.00;99.90;;;;;;5093328;28;20480;-79
2022/05/22 12:12:56;;;;;;;755.78;683.88;;;25.70;99.90;;;;;;5110979;28;20411;-80
2022/05/22 12:15:43;;;;;;;767.95;701.17;;;25.50;99.90;;;;;;5093559;28;20396;-80
2022/05/22 12:18:12;;;;;;;839.92;762.67;;;25.30;99.90;;;;;;5115309;28;20126;-80
2022/05/22 12:20:50;;;;;;;778.45;707.42;;;25.00;99.90;;;;;;5114954;28;20055;-80
2022/05/22 12:23:16;;;;;;;820.55;745.60;;;24.90;99.90;;;;;;5095909;28;20052;-84
2022/05/22 12:25:50;;;;;;;835.85;758.13;;;24.60;99.90;;;;;;5079802;28;20059;-78
2022/05/22 12:28:53;;;;;;;849.70;772.38;;;24.10;99.90;;;;;;5115679;28;20092;-83
2022/05/22 12:31:42;;;;;;;877.67;793.78;;;23.90;99.90;;;;;;5096347;28;20094;-81
2022/05/22 12:34:18;;;;;;;719.53;656.97;;;23.70;99.90;;;;;;5115737;28;20055;-80
2022/05/22 12:36:48;;;;;;;987.80;886.70;;;23.50;99.90;;;;;;5096619;28;20074;-79
2022/05/22 12:39:16;;;;;;;970.35;872.10;;;23.40;99.90;;;;;;5096753;28;20056;-79
2022/05/22 12:41:44;;;;;;;718.08;656.20;;;23.50;99.90;;;;;;5114533;28;20094;-80